Time;durP1;ratioP1;P1;durP2;ratioP2;P2;SDS_P1;SDS_P2;PMS_P1;PMS_P2;Temp;Humidity;BMP_temperature;BMP_pressure;BME280_temperature;BME280_humidity;BME280_pressure;Samples;Min_cycle;Max_cycle;Signal;HPM_P1;HPM_P2
2020/12/14 00:00:30;;;;;;;67.00;32.75;;;;;;;1.77;75.14;101081.87;1731306;81;20974;-76
2020/12/14 00:02:59;;;;;;;78.30;33.50;;;;;;;1.80;75.19;101085.69;1732299;81;21296;-77
2020/12/14 00:05:27;;;;;;;80.57;36.15;;;;;;;1.82;75.10;101079.64;1731828;81;20962;-74
2020/12/14 00:07:55;;;;;;;62.90;29.10;;;;;;;1.83;75.01;101077.45;1730215;81;21380;-74
2020/12/14 00:10:23;;;;;;;69.47;30.65;;;;;;;1.83;74.88;101071.44;1729494;81;20984;-77
2020/12/14 00:12:50;;;;;;;48.55;23.52;;;;;;;1.82;74.83;101072.30;1728910;81;21451;-75
2020/12/14 00:15:18;;;;;;;49.88;21.12;;;;;;;1.84;74.78;101081.73;1728720;81;21119;-75
2020/12/14 00:17:46;;;;;;;37.70;19.50;;;;;;;1.84;74.79;101076.55;1728378;81;20985;-77
2020/12/14 00:20:14;;;;;;;42.80;22.77;;;;;;;1.82;74.87;101084.81;1728701;81;21034;-76
2020/12/14 00:22:42;;;;;;;51.88;26.00;;;;;;;1.82;74.93;101083.93;1723789;79;21017;-78
2020/12/14 00:25:10;;;;;;;51.90;30.82;;;;;;;1.83;74.94;101081.77;1685352;82;20957;-78
2020/12/14 00:27:38;;;;;;;52.38;27.90;;;;;;;1.85;74.86;101077.44;1709181;82;21040;-76
2020/12/14 00:30:06;;;;;;;43.98;23.90;;;;;;;1.84;74.83;101080.44;1710080;82;20938;-78
2020/12/14 00:32:34;;;;;;;36.33;18.62;;;;;;;1.83;74.80;101076.16;1710221;82;20957;-79
2020/12/14 00:35:02;;;;;;;35.40;18.65;;;;;;;1.83;74.77;101068.84;1684773;82;20957;-79
2020/12/14 00:37:30;;;;;;;33.75;19.07;;;;;;;1.82;74.83;101065.83;1708681;82;21041;-77
2020/12/14 00:39:58;;;;;;;41.40;23.02;;;;;;;1.79;74.90;101065.89;1708760;82;21025;-77
2020/12/14 00:42:27;;;;;;;39.00;24.02;;;;;;;1.79;74.93;101060.72;1708870;82;20992;-77
2020/12/14 00:44:56;;;;;;;37.63;21.95;;;;;;;1.76;74.96;101059.49;1708474;82;20941;-77
2020/12/14 00:47:24;;;;;;;37.55;22.75;;;;;;;1.72;75.02;101056.09;1708483;82;20945;-78
2020/12/14 00:49:52;;;;;;;35.83;20.35;;;;;;;1.71;75.13;101054.81;1708647;82;20953;-77
2020/12/14 00:52:20;;;;;;;38.88;19.82;;;;;;;1.74;75.07;101046.58;1708134;82;21240;-77
2020/12/14 00:54:48;;;;;;;32.83;18.30;;;;;;;1.71;75.20;101049.20;1708413;82;21052;-76
2020/12/14 00:57:16;;;;;;;36.15;21.40;;;;;;;1.68;75.21;101045.38;1708539;82;21416;-77
2020/12/14 00:59:44;;;;;;;45.33;23.92;;;;;;;1.66;75.28;101051.02;1708578;82;21004;-79
2020/12/14 01:02:11;;;;;;;35.78;20.23;;;;;;;1.64;75.41;101045.86;1708711;82;21442;-78
2020/12/14 01:04:40;;;;;;;35.75;19.07;;;;;;;1.65;75.39;101041.56;1708414;82;21190;-77
2020/12/14 01:07:09;;;;;;;28.65;14.80;;;;;;;1.63;75.41;101039.00;1708226;82;20973;-78
2020/12/14 01:09:37;;;;;;;25.05;13.65;;;;;;;1.64;75.36;101041.14;1708512;82;21304;-79
2020/12/14 01:12:06;;;;;;;25.85;16.45;;;;;;;1.63;75.42;101044.61;1708386;82;20961;-78
2020/12/14 01:14:34;;;;;;;32.40;19.77;;;;;;;1.62;75.54;101046.77;1708572;82;20987;-77
2020/12/14 01:17:02;;;;;;;37.67;20.37;;;;;;;1.59;75.61;101050.26;1708347;82;21142;-78
2020/12/14 01:19:30;;;;;;;32.13;19.70;;;;;;;1.57;75.67;101054.59;1708457;82;21048;-78
2020/12/14 01:21:58;;;;;;;30.08;17.57;;;;;;;1.54;75.76;101064.15;1707925;82;21040;-79
2020/12/14 01:24:26;;;;;;;35.17;16.82;;;;;;;1.52;75.82;101061.58;1702805;76;20894;-76
2020/12/14 01:26:54;;;;;;;30.15;16.32;;;;;;;1.54;75.84;101055.95;1683788;84;20946;-76
2020/12/14 01:29:22;;;;;;;33.45;18.82;;;;;;;1.56;75.83;101052.91;1684053;84;21189;-77
2020/12/14 01:31:50;;;;;;;40.15;23.20;;;;;;;1.57;75.88;101046.84;1684033;84;21548;-78
2020/12/14 01:34:18;;;;;;;43.73;25.05;;;;;;;1.61;75.84;101053.67;1683959;84;21073;-77
2020/12/14 01:36:48;;;;;;;45.38;25.90;;;;;;;1.64;75.75;101059.23;1684108;84;21500;-75
2020/12/14 01:39:17;;;;;;;40.28;23.60;;;;;;;1.65;75.72;101065.67;1684043;84;21046;-76
2020/12/14 01:41:45;;;;;;;44.53;22.95;;;;;;;1.66;75.64;101057.48;1684303;84;22917;-77
2020/12/14 01:44:14;;;;;;;32.60;18.15;;;;;;;1.69;75.53;101061.33;1684068;84;20995;-75
2020/12/14 01:46:44;;;;;;;30.68;18.62;;;;;;;1.69;75.54;101058.73;1684262;84;20978;-75
2020/12/14 01:49:12;;;;;;;42.83;22.75;;;;;;;1.68;75.60;101054.42;1684141;84;21054;-77
2020/12/14 01:51:39;;;;;;;37.63;21.70;;;;;;;1.64;75.63;101053.61;1684328;84;20999;-77
2020/12/14 01:54:24;;;;;;;45.98;23.25;;;;;;;1.64;75.60;101039.84;1684277;84;21419;-77
2020/12/14 01:56:52;;;;;;;38.78;21.33;;;;;;;1.64;75.67;101036.81;1683726;84;20986;-76
2020/12/14 01:59:19;;;;;;;23.73;14.93;;;;;;;1.62;75.68;101045.47;1661620;82;21555;-78
2020/12/14 02:01:49;;;;;;;25.52;15.15;;;;;;;1.64;75.68;101054.06;1684110;84;21047;-75
2020/12/14 02:04:17;;;;;;;26.42;14.10;;;;;;;1.62;75.72;101055.40;1684672;84;21017;-75
2020/12/14 02:06:46;;;;;;;37.67;19.50;;;;;;;1.59;75.81;101050.26;1684188;84;21155;-77
2020/12/14 02:09:13;;;;;;;33.05;22.45;;;;;;;1.60;75.90;101058.86;1684061;84;20994;-77
2020/12/14 02:11:41;;;;;;;31.77;20.30;;;;;;;1.60;75.92;101043.34;1684294;84;21440;-75
2020/12/14 02:14:09;;;;;;;33.67;20.77;;;;;;;1.61;75.91;101038.61;1684303;84;21052;-75
2020/12/14 02:16:38;;;;;;;27.05;15.85;;;;;;;1.59;75.93;101045.09;1684299;84;20979;-76
2020/12/14 02:19:06;;;;;;;29.70;17.15;;;;;;;1.62;75.90;101050.23;1684304;84;21180;-76
2020/12/14 02:21:34;;;;;;;24.67;16.95;;;;;;;1.64;75.88;101038.11;1684149;84;21093;-76
2020/12/14 02:24:03;;;;;;;31.90;19.07;;;;;;;1.63;75.92;101039.44;1684157;84;20982;-75
2020/12/14 02:26:31;;;;;;;32.70;21.07;;;;;;;1.62;76.03;101042.47;1706839;84;20986;-76
2020/12/14 02:28:59;;;;;;;30.97;22.37;;;;;;;1.63;75.98;101047.20;1684235;84;21038;-75
2020/12/14 02:31:27;;;;;;;38.28;22.87;;;;;;;1.63;76.05;101043.32;1684214;84;21022;-78
2020/12/14 02:33:55;;;;;;;46.45;21.68;;;;;;;1.61;76.09;101041.20;1684147;84;21654;-77
2020/12/14 02:36:24;;;;;;;40.38;20.08;;;;;;;1.65;76.06;101042.41;1684261;84;20978;-75
2020/12/14 02:38:52;;;;;;;37.38;22.05;;;;;;;1.68;76.06;101045.83;1684321;84;20983;-77
2020/12/14 02:41:20;;;;;;;38.85;23.95;;;;;;;1.66;76.13;101040.67;1684403;84;20931;-77
2020/12/14 02:43:47;;;;;;;47.25;25.37;;;;;;;1.68;76.16;101043.24;1684182;84;22892;-77
2020/12/14 02:46:16;;;;;;;47.70;25.45;;;;;;;1.69;76.19;101041.94;1684139;84;21006;-75
2020/12/14 02:48:44;;;;;;;50.43;25.97;;;;;;;1.70;76.17;101040.20;1684647;84;20958;-77
2020/12/14 02:51:18;;;;;;;37.55;19.60;;;;;;;1.73;76.16;101045.30;1684375;82;21085;-75
2020/12/14 02:53:47;;;;;;;35.85;20.27;;;;;;;1.79;75.96;101048.64;1684967;84;20982;-75
2020/12/14 02:56:17;;;;;;;40.08;20.88;;;;;;;1.80;75.84;101047.78;1686684;83;21203;-76
2020/12/14 02:58:44;;;;;;;36.93;21.65;;;;;;;1.76;75.99;101042.69;1688008;84;20995;-75
2020/12/14 03:01:14;;;;;;;35.78;20.43;;;;;;;1.76;76.13;101043.98;1687989;84;20967;-75
2020/12/14 03:03:42;;;;;;;34.83;21.45;;;;;;;1.74;76.22;101044.44;1687878;84;20935;-75
2020/12/14 03:06:10;;;;;;;35.13;22.48;;;;;;;1.72;76.37;101042.31;1687502;84;21002;-75
2020/12/14 03:08:37;;;;;;;32.10;17.90;;;;;;;1.70;76.53;101050.09;1687591;84;21173;-76
2020/12/14 03:11:06;;;;;;;34.20;18.27;;;;;;;1.72;76.65;101050.92;1687286;84;21156;-76
2020/12/14 03:13:33;;;;;;;29.80;17.37;;;;;;;1.69;76.84;101044.52;1687603;84;20915;-76
2020/12/14 03:16:01;;;;;;;40.25;21.93;;;;;;;1.68;76.93;101045.83;1686902;84;21024;-75
2020/12/14 03:18:29;;;;;;;42.88;24.90;;;;;;;1.66;76.97;101036.80;1684761;84;21058;-77
2020/12/14 03:20:57;;;;;;;43.23;21.93;;;;;;;1.63;77.09;101036.86;1684363;84;21217;-77
2020/12/14 03:23:27;;;;;;;36.38;21.68;;;;;;;1.60;77.18;101040.34;1684129;84;21685;-75
2020/12/14 03:25:55;;;;;;;35.17;18.82;;;;;;;1.59;77.28;101039.07;1684208;83;20990;-75
2020/12/14 03:28:23;;;;;;;28.05;15.78;;;;;;;1.60;77.24;101031.72;1684401;83;21407;-76
2020/12/14 03:30:51;;;;;;;27.42;17.48;;;;;;;1.60;77.32;101028.72;1692438;80;21160;-77
2020/12/14 03:33:21;;;;;;;42.80;25.25;;;;;;;1.60;77.49;101031.72;1707490;82;22029;-79
2020/12/14 03:35:48;;;;;;;68.42;36.88;;;;;;;1.58;77.59;101038.23;1707605;82;21594;-78
2020/12/14 03:38:17;;;;;;;50.05;28.12;;;;;;;1.58;77.74;101034.77;1707304;82;21637;-79
2020/12/14 03:40:45;;;;;;;38.42;22.10;;;;;;;1.57;77.65;101044.25;1725958;82;20962;-78
2020/12/14 03:43:13;;;;;;;35.85;19.70;;;;;;;1.55;77.75;101034.38;1726176;82;20923;-79
2020/12/14 03:45:42;;;;;;;32.28;18.40;;;;;;;1.58;77.63;101045.10;1725929;82;22203;-76
2020/12/14 03:48:09;;;;;;;27.82;18.07;;;;;;;1.57;77.67;101040.37;1702692;82;20997;-78
2020/12/14 03:50:42;;;;;;;38.20;20.95;;;;;;;1.57;77.77;101033.92;1727631;82;21050;-77
2020/12/14 03:54:08;;;;;;;37.53;21.30;;;;;;;1.64;77.80;101032.09;1888158;74;21758;-79
2020/12/14 03:56:37;;;;;;;35.15;21.62;;;;;;;1.59;77.74;101033.91;1823617;77;20930;-78
2020/12/14 03:59:05;;;;;;;35.43;20.75;;;;;;;1.58;77.78;101032.17;1822104;77;20981;-80
2020/12/14 04:01:33;;;;;;;32.40;18.65;;;;;;;1.56;77.84;101032.67;1820640;76;21057;-78
2020/12/14 04:04:01;;;;;;;35.90;16.55;;;;;;;1.57;77.81;101030.48;1822278;77;21368;-78
2020/12/14 04:06:29;;;;;;;30.23;18.98;;;;;;;1.57;77.92;101011.10;1822162;77;20969;-77
2020/12/14 04:08:57;;;;;;;33.92;19.98;;;;;;;1.58;78.00;101012.80;1822378;76;20966;-77
2020/12/14 04:11:27;;;;;;;35.17;20.32;;;;;;;1.58;78.02;101020.55;1822264;77;20990;-77
2020/12/14 04:13:55;;;;;;;30.90;20.12;;;;;;;1.58;77.99;101017.55;1822024;77;20958;-77
2020/12/14 04:16:23;;;;;;;38.78;21.40;;;;;;;1.59;77.95;101021.83;1820855;77;20954;-78
2020/12/14 04:18:51;;;;;;;27.00;16.05;;;;;;;1.58;77.77;101020.14;1820918;77;20923;-79
2020/12/14 04:21:20;;;;;;;28.80;15.13;;;;;;;1.62;77.67;101032.13;1822486;77;20950;-80
2020/12/14 04:23:48;;;;;;;28.38;15.65;;;;;;;1.65;77.46;101040.27;1822281;77;22386;-77
2020/12/14 04:26:16;;;;;;;30.65;17.62;;;;;;;1.64;77.40;101039.39;1822236;77;21005;-77
2020/12/14 04:28:44;;;;;;;32.30;19.50;;;;;;;1.62;77.25;101039.89;1822191;77;21034;-78
2020/12/14 04:31:12;;;;;;;32.38;19.57;;;;;;;1.60;77.28;101038.18;1822391;77;21415;-78
2020/12/14 04:33:41;;;;;;;28.92;18.90;;;;;;;1.57;77.23;101041.67;1815769;76;20915;-77
2020/12/14 04:36:12;;;;;;;29.32;14.83;;;;;;;1.56;77.32;101040.42;1735404;80;21005;-76
2020/12/14 04:38:40;;;;;;;30.68;16.35;;;;;;;1.57;77.31;101039.53;1760855;81;20949;-76
2020/12/14 04:41:08;;;;;;;39.15;20.45;;;;;;;1.57;77.35;101053.75;1760833;80;21485;-76
2020/12/14 04:43:36;;;;;;;40.55;19.95;;;;;;;1.55;77.46;101052.92;1760761;79;21403;-76
2020/12/14 04:46:05;;;;;;;37.25;19.42;;;;;;;1.54;77.62;101051.23;1760870;80;21518;-75
2020/12/14 04:48:33;;;;;;;40.50;21.75;;;;;;;1.53;77.52;101059.84;1760840;79;20992;-75
2020/12/14 04:51:01;;;;;;;29.75;17.82;;;;;;;1.52;77.61;101060.73;1760942;79;21505;-74
2020/12/14 04:53:29;;;;;;;36.10;16.82;;;;;;;1.52;77.61;101070.63;1761075;80;21458;-75
2020/12/14 04:55:58;;;;;;;34.53;17.32;;;;;;;1.55;77.58;101082.64;1761070;81;21032;-77
2020/12/14 04:58:26;;;;;;;29.98;17.73;;;;;;;1.52;77.65;101080.96;1728211;81;21115;-75
2020/12/14 05:00:55;;;;;;;34.83;17.00;;;;;;;1.54;77.65;101074.48;1735600;81;21394;-76
2020/12/14 05:03:23;;;;;;;33.30;18.70;;;;;;;1.55;77.77;101073.59;1760751;80;20940;-76
2020/12/14 05:05:55;;;;;;;39.85;21.27;;;;;;;1.55;77.88;101068.42;1760414;80;20957;-77
2020/12/14 05:08:28;;;;;;;39.05;23.75;;;;;;;1.57;77.82;101068.81;1760331;80;20981;-76
2020/12/14 05:10:56;;;;;;;33.45;17.70;;;;;;;1.59;77.82;101064.92;1760376;80;20937;-75
2020/12/14 05:13:28;;;;;;;32.50;15.45;;;;;;;1.64;77.65;101065.69;1760411;79;21171;-75
2020/12/14 05:15:57;;;;;;;27.60;17.02;;;;;;;1.66;77.52;101064.78;1760322;80;21954;-78
2020/12/14 05:18:26;;;;;;;38.00;18.87;;;;;;;1.66;77.60;101081.59;1760310;80;21063;-77
2020/12/14 05:21:03;;;;;;;34.53;16.80;;;;;;;1.66;77.62;101074.28;1760268;79;20980;-78
2020/12/14 05:23:32;;;;;;;34.90;19.98;;;;;;;1.68;77.64;101075.11;1760249;81;20964;-77
2020/12/14 05:26:13;;;;;;;35.68;19.37;;;;;;;1.65;77.45;101077.31;1760397;79;22127;-76
2020/12/14 05:28:42;;;;;;;28.52;16.20;;;;;;;1.63;77.61;101076.48;1760066;80;21004;-76
2020/12/14 05:31:19;;;;;;;32.93;17.30;;;;;;;1.67;77.60;101078.59;1760366;79;20976;-80
2020/12/14 05:33:47;;;;;;;27.15;14.75;;;;;;;1.69;77.47;101078.54;1760167;80;21056;-80
2020/12/14 05:36:16;;;;;;;32.48;16.02;;;;;;;1.67;77.50;101086.34;1760303;79;21020;-81
2020/12/14 05:38:46;;;;;;;36.98;19.30;;;;;;;1.63;77.60;101080.80;1760520;80;22216;-80
2020/12/14 05:41:14;;;;;;;37.08;19.95;;;;;;;1.60;77.63;101070.48;1735022;81;21405;-80
2020/12/14 05:43:42;;;;;;;36.88;20.75;;;;;;;1.59;77.72;101073.52;1698860;81;20956;-79
2020/12/14 05:46:12;;;;;;;35.40;20.95;;;;;;;1.62;77.69;101070.03;1704021;81;20988;-78
2020/12/14 05:48:40;;;;;;;37.28;18.80;;;;;;;1.63;77.51;101069.17;1760231;80;20984;-78
2020/12/14 05:51:09;;;;;;;26.45;15.32;;;;;;;1.64;77.42;101077.33;1760066;81;21148;-77
2020/12/14 05:53:48;;;;;;;29.32;16.48;;;;;;;1.64;77.42;101078.17;1760228;80;20960;-80
2020/12/14 05:56:17;;;;;;;36.13;19.92;;;;;;;1.63;77.46;101067.87;1734921;81;20980;-77
2020/12/14 05:58:46;;;;;;;35.83;20.97;;;;;;;1.62;77.37;101078.66;1765269;80;20940;-79
2020/12/14 06:01:14;;;;;;;33.38;18.85;;;;;;;1.61;77.53;101085.14;1727642;80;20948;-80
2020/12/14 06:03:43;;;;;;;30.43;19.05;;;;;;;1.62;77.52;101085.54;1711249;81;21553;-78
2020/12/14 06:09:05;;;;;;;24.80;14.13;;;;;;;1.75;77.26;101084.91;1845985;75;22688;-79
2020/12/14 06:11:36;;;;;;;26.40;15.35;;;;;;;1.72;77.23;101095.31;1817974;77;21075;-78
2020/12/14 06:14:05;;;;;;;34.65;19.07;;;;;;;1.70;77.27;101084.98;1784775;79;21013;-78
2020/12/14 06:16:37;;;;;;;40.98;21.15;;;;;;;1.72;77.26;101090.15;1786105;79;20946;-78
2020/12/14 06:19:05;;;;;;;32.23;19.82;;;;;;;1.71;77.33;101089.72;1784911;79;21026;-77
2020/12/14 06:21:39;;;;;;;34.60;20.45;;;;;;;1.74;77.24;101091.83;1759765;79;21486;-78
2020/12/14 06:24:11;;;;;;;29.00;17.48;;;;;;;1.75;77.22;101090.09;1786160;79;20923;-80
2020/12/14 06:26:39;;;;;;;36.93;18.55;;;;;;;1.80;77.07;101089.56;1785846;79;21372;-78
2020/12/14 06:29:07;;;;;;;35.17;17.70;;;;;;;1.81;77.06;101095.16;1759572;79;21513;-77
2020/12/14 06:31:39;;;;;;;35.38;18.32;;;;;;;1.85;76.94;101105.88;1784682;79;21025;-78
2020/12/14 06:34:35;;;;;;;43.23;21.70;;;;;;;1.82;76.78;101108.08;1784859;79;20934;-76
2020/12/14 06:37:04;;;;;;;44.27;20.77;;;;;;;1.79;76.78;101113.28;1782058;79;20962;-78
2020/12/14 06:39:41;;;;;;;36.13;19.23;;;;;;;1.77;76.95;101104.69;1785039;77;22132;-80
2020/12/14 06:42:21;;;;;;;36.90;20.45;;;;;;;1.63;76.87;101076.92;1691137;83;20980;-78
2020/12/14 06:45:04;;;;;;;37.48;19.02;;;;;;;1.78;76.86;101102.95;1645098;85;21022;-79
2020/12/14 06:47:47;;;;;;;26.52;15.75;;;;;;;1.79;76.88;101104.67;1645116;85;20925;-79
2020/12/14 06:50:47;;;;;;;26.82;15.25;;;;;;;1.80;76.93;101097.32;1645032;85;21068;-74
2020/12/14 06:53:52;;;;;;;29.95;18.17;;;;;;;1.74;76.85;101078.90;1812750;79;22614;-74
2020/12/14 06:56:34;;;;;;;32.13;17.70;;;;;;;1.80;76.80;101098.61;1753336;80;21034;-74
2020/12/14 06:59:02;;;;;;;36.50;20.20;;;;;;;1.77;76.76;101096.94;1779475;80;21161;-73
2020/12/14 07:01:41;;;;;;;28.57;15.48;;;;;;;1.75;77.02;101092.22;1753771;80;21528;-75
2020/12/14 07:04:32;;;;;;;33.28;19.07;;;;;;;1.79;76.87;101090.45;1753276;80;21095;-73
2020/12/14 07:07:12;;;;;;;35.20;16.32;;;;;;;1.80;76.87;101103.38;1779499;80;20940;-73
2020/12/14 07:09:40;;;;;;;39.23;18.00;;;;;;;1.81;76.84;101099.89;1718804;83;21042;-75
2020/12/14 07:12:15;;;;;;;30.65;18.80;;;;;;;1.80;76.93;101108.55;1695426;83;21291;-76
2020/12/14 07:14:53;;;;;;;;;;;;;;;1.80;77.00;101111.55;1698706;83;20985;-74
2020/12/14 07:17:25;;;;;;;37.98;18.70;;;;;;;1.82;77.05;101117.55;1697508;83;20168;-76
2020/12/14 07:19:59;;;;;;;35.50;19.52;;;;;;;1.83;76.90;101109.77;1695016;83;20944;-75
2020/12/14 07:22:36;;;;;;;30.62;15.78;;;;;;;1.79;76.84;101119.74;1695239;83;20957;-75
2020/12/14 07:25:09;;;;;;;26.05;14.73;;;;;;;1.82;76.79;101133.94;1693744;83;21502;-74
2020/12/14 07:27:39;;;;;;;27.42;16.50;;;;;;;1.86;76.70;101132.98;1695110;83;21016;-74
2020/12/14 07:30:19;;;;;;;35.08;18.25;;;;;;;1.91;76.86;101123.02;1847977;75;22113;-76
2020/12/14 07:32:48;;;;;;;30.62;17.73;;;;;;;1.87;76.71;101129.98;1786365;79;20943;-73
2020/12/14 07:35:20;;;;;;;32.15;19.80;;;;;;;1.88;76.64;101129.54;1785307;79;20963;-75
2020/12/14 07:37:50;;;;;;;32.58;19.07;;;;;;;1.88;76.53;101125.66;1786171;79;20919;-74
2020/12/14 07:40:19;;;;;;;35.50;17.45;;;;;;;1.87;76.54;101140.33;1786452;79;21345;-73
2020/12/14 07:42:47;;;;;;;25.60;16.15;;;;;;;1.92;76.42;101142.84;1782271;76;21368;-74
2020/12/14 07:45:19;;;;;;;29.87;15.98;;;;;;;1.94;76.23;101143.67;1755872;80;21004;-73
2020/12/14 07:47:50;;;;;;;39.15;19.42;;;;;;;1.94;76.10;101150.98;1706204;82;21004;-74
2020/12/14 07:50:26;;;;;;;32.75;18.92;;;;;;;1.94;76.22;101154.86;1755835;81;20994;-77
2020/12/14 07:52:55;;;;;;;37.53;21.12;;;;;;;1.94;76.24;101143.67;1755865;80;21030;-74
2020/12/14 07:55:26;;;;;;;38.33;21.15;;;;;;;1.92;76.25;101150.16;1755913;80;21082;-82
2020/12/14 07:57:55;;;;;;;33.02;19.17;;;;;;;1.92;76.27;101157.91;1706221;82;21587;-81
2020/12/14 08:00:25;;;;;;;23.73;14.95;;;;;;;1.91;76.41;101150.16;1755901;81;21639;-80
2020/12/14 08:03:05;;;;;;;34.65;16.95;;;;;;;1.91;76.38;101141.96;1755876;80;21615;-80
2020/12/14 08:05:24;;;;;;;29.12;18.77;;;;;;;1.92;76.58;101138.52;1718475;82;21039;-82
2020/12/14 08:08:04;;;;;;;32.60;18.95;;;;;;;1.93;76.79;101142.80;1755376;80;20967;-80
2020/12/14 08:10:34;;;;;;;32.55;18.70;;;;;;;1.97;76.59;101143.16;1755714;80;21075;-80
2020/12/14 08:13:11;;;;;;;31.25;18.48;;;;;;;1.98;76.51;101146.19;1755993;80;22723;-81
2020/12/14 08:15:45;;;;;;;38.15;21.50;;;;;;;1.99;76.52;101137.98;1733239;81;21058;-81
2020/12/14 08:18:15;;;;;;;37.80;20.85;;;;;;;1.99;76.53;101137.53;1755897;80;21066;-81
2020/12/14 08:20:52;;;;;;;26.60;15.50;;;;;;;2.04;76.54;101137.00;1706953;81;20963;-80
2020/12/14 08:23:38;;;;;;;;;;;;;;;2.07;76.43;101140.86;1759099;80;20982;-81
2020/12/14 08:26:10;;;;;;;39.48;18.55;;;;;;;2.06;76.45;101139.58;1721410;82;21487;-80
2020/12/14 08:28:39;;;;;;;33.42;19.48;;;;;;;2.04;76.63;101143.47;1674583;84;20959;-80
2020/12/14 08:31:07;;;;;;;30.77;18.95;;;;;;;2.07;76.76;101141.30;1673360;84;21087;-79
2020/12/14 08:33:55;;;;;;;32.45;18.85;;;;;;;2.12;76.56;101146.40;1672600;84;21079;-80
2020/12/14 08:36:24;;;;;;;40.85;23.05;;;;;;;2.12;76.44;101142.52;1720601;82;21030;-83
2020/12/14 08:38:52;;;;;;;37.70;20.52;;;;;;;2.07;76.50;101140.01;1672411;84;21069;-83
2020/12/14 08:41:24;;;;;;;36.70;18.67;;;;;;;2.05;76.59;101130.97;1671864;84;21659;-83
2020/12/14 08:43:56;;;;;;;32.13;17.40;;;;;;;2.10;76.79;101136.06;1633168;86;21050;-77
2020/12/14 08:46:29;;;;;;;35.63;19.60;;;;;;;2.15;76.88;101133.40;1661416;81;21058;-82
2020/12/14 08:48:59;;;;;;;35.05;19.95;;;;;;;2.19;76.92;101137.20;1739725;81;21019;-81
2020/12/14 08:51:32;;;;;;;35.58;20.92;;;;;;;2.23;76.93;101141.45;1705017;83;22214;-82
2020/12/14 08:54:14;;;;;;;36.50;22.65;;;;;;;2.25;76.85;101137.55;1704935;83;21827;-83
2020/12/14 08:56:43;;;;;;;37.63;22.82;;;;;;;2.23;77.00;101140.60;1686752;83;20970;-84
2020/12/14 08:59:16;;;;;;;41.08;22.00;;;;;;;2.20;77.08;101131.58;1686638;83;21416;-82
2020/12/14 09:02:00;;;;;;;33.28;24.27;;;;;;;2.21;77.28;101126.39;1699258;83;21523;-81
2020/12/14 09:04:35;;;;;;;34.90;22.48;;;;;;;2.24;77.19;101116.42;1698246;83;21057;-81
2020/12/14 09:07:06;;;;;;;45.50;25.80;;;;;;;2.23;77.36;101122.48;1699265;83;28657;-81
2020/12/14 09:09:38;;;;;;;57.17;33.50;;;;;;;2.23;77.43;101117.31;1699606;83;21570;-82
2020/12/14 09:12:10;;;;;;;59.75;35.95;;;;;;;2.23;77.60;101119.45;1699319;83;21102;-82
2020/12/14 09:14:38;;;;;;;56.42;36.28;;;;;;;2.26;77.39;101112.07;1700344;83;21030;-85
2020/12/14 09:17:17;;;;;;;50.80;32.65;;;;;;;2.25;77.35;101122.88;1700854;83;21137;-83
2020/12/14 09:19:53;;;;;;;56.10;38.00;;;;;;;2.25;77.42;101122.02;1697179;83;21058;-83
2020/12/14 09:22:22;;;;;;;46.95;29.37;;;;;;;2.25;77.36;101112.97;1701396;83;20966;-81
2020/12/14 09:24:51;;;;;;;37.75;26.37;;;;;;;2.26;77.42;101109.03;1700489;83;20994;-80
2020/12/14 09:27:21;;;;;;;34.85;21.73;;;;;;;2.27;77.34;101104.30;1699621;83;20994;-82
2020/12/14 09:29:56;;;;;;;44.83;26.60;;;;;;;2.27;77.40;101104.30;1697627;83;24720;-81
2020/12/14 09:32:25;;;;;;;42.85;26.42;;;;;;;2.28;77.85;101096.92;1699727;83;21036;-81
2020/12/14 09:34:53;;;;;;;45.90;27.95;;;;;;;2.35;77.60;101095.08;1699183;83;20962;-83
2020/12/14 09:37:22;;;;;;;44.77;27.48;;;;;;;2.39;77.53;101094.14;1699068;83;20955;-81
2020/12/14 09:39:51;;;;;;;46.73;26.02;;;;;;;2.43;77.47;101091.92;1699267;83;20974;-81
2020/12/14 09:42:19;;;;;;;46.73;28.90;;;;;;;2.46;77.44;101091.00;1699176;83;22226;-80
2020/12/14 09:44:48;;;;;;;42.53;25.02;;;;;;;2.47;77.33;101090.14;1699177;83;21615;-81
2020/12/14 09:47:19;;;;;;;44.80;23.35;;;;;;;2.54;77.27;101095.61;1693820;83;21058;-80
2020/12/14 09:49:49;;;;;;;39.45;22.07;;;;;;;2.63;77.15;101101.05;1691154;81;21156;-84
2020/12/14 09:52:18;;;;;;;39.23;21.82;;;;;;;2.69;77.14;101107.38;1751911;80;21492;-82
2020/12/14 09:54:46;;;;;;;42.17;24.50;;;;;;;2.73;76.66;101111.62;1759319;80;21138;-82
2020/12/14 09:57:16;;;;;;;42.20;25.43;;;;;;;2.75;76.60;101112.45;1751782;80;21456;-82
2020/12/14 09:59:45;;;;;;;39.83;25.32;;;;;;;2.81;76.62;101116.66;1787274;78;20946;-83
2020/12/14 10:02:15;;;;;;;47.17;26.62;;;;;;;2.83;76.35;101105.39;1787299;78;20931;-85
2020/12/14 10:04:43;;;;;;;41.08;26.55;;;;;;;2.88;76.61;101114.36;1787630;78;21022;-84
2020/12/14 10:07:12;;;;;;;34.70;19.80;;;;;;;2.90;76.18;101105.66;1786982;78;21637;-85
2020/12/14 10:09:40;;;;;;;37.30;19.17;;;;;;;2.90;75.64;101104.37;1787508;78;20958;-83
2020/12/14 10:12:09;;;;;;;36.28;19.48;;;;;;;2.88;75.45;101100.95;1787997;78;20962;-84
2020/12/14 10:14:43;;;;;;;30.12;16.50;;;;;;;2.89;75.44;101099.21;1787967;78;21531;-86
2020/12/14 10:17:12;;;;;;;29.37;16.60;;;;;;;2.88;75.48;101089.30;1788805;78;26627;-81
2020/12/14 10:19:43;;;;;;;30.97;18.92;;;;;;;2.86;75.26;101090.22;1823361;78;20942;-82
2020/12/14 10:22:33;;;;;;;34.20;20.40;;;;;;;2.85;75.40;101098.44;1788434;78;20985;-84
2020/12/14 10:25:03;;;;;;;32.30;19.80;;;;;;;2.88;75.37;101093.19;1785603;78;20943;-81
2020/12/14 10:27:36;;;;;;;35.13;19.87;;;;;;;2.88;75.40;101085.41;1786645;78;20923;-81
2020/12/14 10:30:06;;;;;;;36.73;21.30;;;;;;;2.88;75.59;101079.39;1787526;78;21026;-83
2020/12/14 10:32:39;;;;;;;33.28;22.30;;;;;;;2.89;75.33;101087.14;1787517;78;20966;-83
2020/12/14 10:35:27;;;;;;;28.90;18.67;;;;;;;2.98;75.28;101083.92;1848115;76;24028;-83
2020/12/14 10:38:02;;;;;;;29.25;18.25;;;;;;;2.94;75.34;101087.48;1789086;78;20919;-84
2020/12/14 10:40:55;;;;;;;33.80;21.52;;;;;;;2.94;75.80;101088.34;1795259;76;20951;-82
2020/12/14 10:43:26;;;;;;;36.75;21.75;;;;;;;2.98;75.95;101087.39;1789966;78;20990;-84
2020/12/14 10:46:02;;;;;;;50.90;29.00;;;;;;;3.04;76.05;101088.53;1789983;79;21344;-84
2020/12/14 10:48:29;;;;;;;51.05;28.67;;;;;;;3.09;75.83;101096.20;1787404;79;20954;-84
2020/12/14 10:51:00;;;;;;;41.55;25.20;;;;;;;3.12;75.78;101097.45;1821634;77;20935;-85
2020/12/14 10:53:29;;;;;;;37.65;22.77;;;;;;;3.16;75.76;101099.52;1775317;76;22841;-86
2020/12/14 10:56:00;;;;;;;43.68;24.32;;;;;;;3.18;75.67;101099.92;1688511;83;21019;-86
2020/12/14 10:58:29;;;;;;;37.63;22.37;;;;;;;3.18;75.54;101095.16;1711435;83;21046;-84
2020/12/14 11:00:59;;;;;;;34.45;18.80;;;;;;;3.18;75.48;101090.85;1711166;81;21006;-87
2020/12/14 11:03:33;;;;;;;29.65;18.62;;;;;;;3.19;75.48;101101.61;1670328;84;20946;-88
2020/12/14 11:06:02;;;;;;;34.83;20.12;;;;;;;3.18;75.34;101094.73;1711434;81;22209;-88
2020/12/14 11:08:36;;;;;;;34.98;20.15;;;;;;;3.20;75.49;101096.86;1686478;83;20987;-89
2020/12/14 11:11:12;;;;;;;38.95;21.80;;;;;;;3.23;75.56;101090.75;1727836;82;21371;-88
2020/12/14 11:13:41;;;;;;;40.45;21.52;;;;;;;3.23;75.70;101079.93;1708033;83;21032;-90
2020/12/14 11:16:14;;;;;;;33.80;21.62;;;;;;;3.26;76.04;101077.26;1708265;83;20954;-89
2020/12/14 11:18:45;;;;;;;35.23;19.55;;;;;;;3.29;76.12;101086.28;1725579;82;21496;-89
2020/12/14 11:21:23;;;;;;;35.20;19.57;;;;;;;3.32;75.87;101084.91;1706431;83;21057;-92
2020/12/14 11:23:59;;;;;;;26.07;16.80;;;;;;;3.34;75.63;101091.81;1707983;83;21077;-92
2020/12/14 11:26:34;;;;;;;28.45;14.38;;;;;;;3.40;75.66;101085.17;1708681;81;20970;-91
2020/12/14 11:29:38;;;;;;;26.60;15.85;;;;;;;3.48;75.78;101085.41;1821200;77;22297;-88
2020/12/14 11:32:09;;;;;;;30.32;16.80;;;;;;;3.55;75.36;101093.05;1702342;81;20970;-87
2020/12/14 11:34:37;;;;;;;31.77;17.40;;;;;;;3.58;75.16;101096.44;1738850;81;22563;-85
2020/12/14 11:37:08;;;;;;;28.47;17.25;;;;;;;3.63;74.93;101102.36;1729801;81;20963;-90